Time;durP1;ratioP1;P1;durP2;ratioP2;P2;SDS_P1;SDS_P2;PMS_P1;PMS_P2;Temp;Humidity;BMP_temperature;BMP_pressure;BME280_temperature;BME280_humidity;BME280_pressure;Samples;Min_cycle;Max_cycle;Signal;HPM_P1;HPM_P2
2022/03/21 00:01:45;;;;;;;14.68;13.18;;;;;;;7.26;50.50;100007.69;5039735;27;103280;-66
2022/03/21 00:04:13;;;;;;;13.75;12.55;;;;;;;7.49;49.94;100005.00;5037478;27;103714;-66
2022/03/21 00:06:41;;;;;;;13.02;11.82;;;;;;;7.90;50.02;100015.66;5040988;27;103272;-66
2022/03/21 00:09:09;;;;;;;9.93;9.13;;;;;;;8.58;49.56;100021.53;5022332;27;103340;-66
2022/03/21 00:11:36;;;;;;;11.48;10.48;;;;;;;8.70;49.63;100017.53;5020958;27;102740;-66
2022/03/21 00:14:06;;;;;;;14.48;13.13;;;;;;;7.89;48.58;100020.03;5035718;27;103665;-66
2022/03/21 00:16:33;;;;;;;15.30;13.90;;;;;;;7.37;50.03;100015.16;5043702;27;103331;-66
2022/03/21 00:19:02;;;;;;;14.60;13.30;;;;;;;7.44;49.34;100019.22;5036975;27;103176;-66
2022/03/21 00:21:30;;;;;;;14.30;12.98;;;;;;;7.41;49.05;100012.31;5024716;27;102763;-66
2022/03/21 00:23:58;;;;;;;11.85;10.82;;;;;;;8.11;48.54;100014.78;5019967;27;104089;-66
2022/03/21 00:26:25;;;;;;;10.68;9.77;;;;;;;8.58;48.29;100015.41;5036995;27;103897;-66
2022/03/21 00:28:54;;;;;;;11.45;10.45;;;;;;;8.68;47.97;100011.44;5040682;27;103211;-66
2022/03/21 00:31:23;;;;;;;11.00;10.03;;;;;;;8.76;48.30;100019.84;5037980;27;102681;-66
2022/03/21 00:33:51;;;;;;;10.10;9.20;;;;;;;8.86;48.77;100020.31;5011887;27;102739;-66
2022/03/21 00:36:19;;;;;;;14.05;12.77;;;;;;;8.69;47.98;100019.28;5019591;27;103665;-66
2022/03/21 00:39:07;;;;;;;13.68;12.48;;;;;;;8.55;49.29;100015.53;5019441;27;104118;-66
2022/03/21 00:41:38;;;;;;;14.40;13.10;;;;;;;8.18;48.93;100024.13;5033704;27;102764;-66
2022/03/21 00:44:07;;;;;;;12.45;11.25;;;;;;;8.31;49.91;100025.34;5039863;27;104025;-66
2022/03/21 00:46:36;;;;;;;14.40;12.95;;;;;;;7.99;49.87;100028.44;5031574;27;104218;-66
2022/03/21 00:49:08;;;;;;;14.40;12.90;;;;;;;7.24;51.40;100030.50;5042047;27;103199;-66
2022/03/21 00:51:36;;;;;;;13.55;12.25;;;;;;;7.59;51.33;100027.41;5029379;27;103008;-66
2022/03/21 00:54:04;;;;;;;12.15;11.05;;;;;;;7.95;51.17;100026.84;5036710;27;102937;-66
2022/03/21 00:56:31;;;;;;;10.98;9.98;;;;;;;8.24;50.36;100021.22;5035307;27;103916;-66
2022/03/21 00:59:00;;;;;;;13.93;12.70;;;;;;;7.81;51.19;100016.00;5036851;27;103101;-65
2022/03/21 01:01:29;;;;;;;11.85;10.85;;;;;;;7.98;51.38;100014.41;5035018;27;102678;-65
2022/03/21 01:03:58;;;;;;;11.38;10.27;;;;;;;8.16;50.97;100020.69;5040828;27;102813;-65
2022/03/21 01:06:26;;;;;;;13.73;12.32;;;;;;;7.70;50.30;100015.59;5044061;27;103471;-65
2022/03/21 01:08:54;;;;;;;14.20;12.90;;;;;;;6.98;52.37;100017.50;5034420;27;103245;-65
2022/03/21 01:11:23;;;;;;;14.13;12.82;;;;;;;6.79;51.99;100017.31;5025345;27;102815;-65
2022/03/21 01:13:50;;;;;;;10.65;9.65;;;;;;;7.58;52.00;100025.69;5037279;27;103947;-65
2022/03/21 01:16:20;;;;;;;11.93;10.82;;;;;;;7.90;50.97;100026.16;5034301;27;104135;-68
2022/03/21 01:18:48;;;;;;;13.68;12.38;;;;;;;7.85;51.04;100028.13;5041234;27;103187;-65
2022/03/21 01:21:20;;;;;;;14.23;12.83;;;;;;;7.26;51.48;100020.81;5014857;27;102754;-65
2022/03/21 01:23:47;;;;;;;13.30;12.10;;;;;;;7.19;52.81;100026.34;5040632;27;103708;-66
2022/03/21 01:26:15;;;;;;;12.82;11.57;;;;;;;7.63;52.50;100027.28;5040275;27;103853;-66
2022/03/21 01:28:44;;;;;;;12.88;11.77;;;;;;;7.85;52.11;100028.13;5018926;27;104389;-66
2022/03/21 01:31:11;;;;;;;13.35;12.15;;;;;;;7.79;51.93;100023.97;5014945;27;102647;-66
2022/03/21 01:33:41;;;;;;;10.80;9.80;;;;;;;7.83;52.43;100024.72;5034268;27;102651;-66
2022/03/21 01:36:09;;;;;;;12.10;11.00;;;;;;;7.81;52.52;100031.78;5031704;27;104090;-66
2022/03/21 01:38:38;;;;;;;14.85;13.45;;;;;;;7.10;53.60;100037.22;5037373;27;103438;-66
2022/03/21 01:41:08;;;;;;;13.23;12.13;;;;;;;6.86;55.28;100038.97;5009433;27;103051;-66
2022/03/21 01:44:01;;;;;;;13.10;11.90;;;;;;;7.42;53.99;100042.97;5033506;27;103569;-66
2022/03/21 01:46:30;;;;;;;10.60;9.70;;;;;;;7.58;53.90;100038.81;5036907;27;103933;-66
2022/03/21 01:48:58;;;;;;;10.77;9.88;;;;;;;7.75;53.31;100039.97;5018477;27;104362;-66
2022/03/21 01:51:27;;;;;;;14.13;12.93;;;;;;;7.61;53.71;100043.09;5011409;27;102726;-66
2022/03/21 01:56:45;;;;;;;15.80;14.20;;;;;;;5.68;59.22;100049.09;5039602;27;104121;-66
2022/03/21 01:59:17;;;;;;;11.90;10.82;;;;;;;6.73;57.38;100049.06;5038142;27;103360;-66
2022/03/21 02:01:45;;;;;;;13.80;12.47;;;;;;;7.09;55.52;100044.25;5029185;27;103009;-66
2022/03/21 02:04:13;;;;;;;14.30;12.85;;;;;;;6.97;56.54;100044.69;5034222;27;104140;-66
2022/03/21 02:06:43;;;;;;;14.07;12.77;;;;;;;7.11;55.63;100044.19;5029143;27;103296;-66
2022/03/21 02:09:13;;;;;;;13.53;12.23;;;;;;;7.27;55.37;100051.44;5036531;27;104448;-66
2022/03/21 02:11:41;;;;;;;11.03;9.97;;;;;;;7.41;55.25;100054.41;5032371;27;102783;-66
2022/03/21 02:14:11;;;;;;;14.80;13.40;;;;;;;7.21;55.20;100046.44;5015619;27;103708;-66
2022/03/21 02:16:40;;;;;;;16.20;14.70;;;;;;;6.18;58.10;100042.22;5036434;27;104118;-67
2022/03/21 02:19:14;;;;;;;15.73;14.23;;;;;;;5.99;59.00;100049.00;5042951;27;103270;-67
2022/03/21 02:21:48;;;;;;;16.05;14.45;;;;;;;5.34;61.96;100051.00;5044805;27;102632;-66
2022/03/21 02:24:26;;;;;;;13.40;12.10;;;;;;;6.21;60.10;100049.13;5026854;27;103594;-66
2022/03/21 02:26:56;;;;;;;14.20;12.90;;;;;;;6.64;58.43;100045.91;5041439;27;103927;-67
2022/03/21 02:29:26;;;;;;;11.40;10.40;;;;;;;7.02;57.79;100045.38;5040486;27;103178;-67
2022/03/21 02:31:55;;;;;;;10.20;9.38;;;;;;;7.24;57.16;100051.53;5025003;27;102759;-68
2022/03/21 02:34:27;;;;;;;14.60;13.10;;;;;;;6.90;57.36;100045.84;5042100;27;102712;-67
2022/03/21 02:36:58;;;;;;;14.68;13.32;;;;;;;6.63;58.63;100058.19;5019347;27;104265;-67
2022/03/21 02:39:28;;;;;;;12.50;11.40;;;;;;;7.04;58.28;100048.81;5031955;27;103382;-67
2022/03/21 02:41:57;;;;;;;13.32;12.13;;;;;;;7.24;57.28;100056.81;5021822;27;102681;-67
2022/03/21 02:44:32;;;;;;;15.27;13.88;;;;;;;6.58;59.29;100057.47;5039879;27;103947;-66
2022/03/21 02:47:00;;;;;;;15.15;13.75;;;;;;;6.13;60.42;100057.28;5026782;27;103990;-67
2022/03/21 02:49:28;;;;;;;15.27;13.88;;;;;;;6.13;60.67;100062.53;5037545;27;103310;-67
2022/03/21 02:51:59;;;;;;;16.43;14.83;;;;;;;5.93;61.32;100059.69;5040758;27;102739;-66
2022/03/21 02:54:27;;;;;;;14.55;13.25;;;;;;;6.42;60.19;100053.69;5040358;27;102711;-67
2022/03/21 02:56:58;;;;;;;15.00;13.70;;;;;;;6.49;59.47;100059.56;5021057;27;104363;-67
2022/03/21 02:59:26;;;;;;;14.17;12.80;;;;;;;6.77;58.73;100055.91;5012168;27;104127;-66
2022/03/21 03:01:54;;;;;;;15.65;14.25;;;;;;;6.50;58.68;100058.66;5042726;27;102867;-67
2022/03/21 03:04:23;;;;;;;14.07;12.88;;;;;;;6.83;58.53;100057.47;5023563;27;104415;-66
2022/03/21 03:06:51;;;;;;;12.33;11.23;;;;;;;6.99;57.60;100056.84;5038764;27;104048;-67
2022/03/21 03:09:19;;;;;;;14.25;12.98;;;;;;;6.85;57.09;100053.88;5034389;27;103213;-66
2022/03/21 03:11:47;;;;;;;16.15;14.75;;;;;;;5.91;60.37;100056.25;5041168;27;102593;-67
2022/03/21 03:14:17;;;;;;;12.20;11.10;;;;;;;6.49;59.55;100049.91;5037656;27;102819;-66
2022/03/21 03:16:45;;;;;;;11.87;10.77;;;;;;;6.86;58.18;100066.09;5044116;27;104120;-67
2022/03/21 03:19:13;;;;;;;16.08;14.57;;;;;;;6.25;59.62;100071.75;5030720;27;103556;-66
2022/03/21 03:21:45;;;;;;;16.20;14.70;;;;;;;6.10;60.34;100067.88;5039707;27;103031;-66
2022/03/21 03:24:13;;;;;;;16.00;14.50;;;;;;;5.89;60.54;100073.81;5039955;27;102692;-66
2022/03/21 03:26:41;;;;;;;15.55;14.05;;;;;;;5.92;61.19;100076.34;5024480;27;103964;-66
2022/03/21 03:29:09;;;;;;;15.02;13.55;;;;;;;6.07;60.91;100073.22;5039912;27;102999;-66
2022/03/21 03:31:40;;;;;;;15.73;14.23;;;;;;;5.86;60.62;100073.06;5040935;27;102791;-66
2022/03/21 03:34:08;;;;;;;16.63;14.80;;;;;;;5.69;61.56;100081.41;5040287;27;102750;-67
2022/03/21 03:36:36;;;;;;;14.60;13.30;;;;;;;6.10;61.22;100073.13;5033752;27;103315;-66
2022/03/21 03:39:07;;;;;;;13.82;12.63;;;;;;;6.40;60.06;100068.59;5039123;27;103208;-66
2022/03/21 03:41:35;;;;;;;16.03;14.43;;;;;;;6.04;60.15;100073.31;5022417;27;102804;-67
2022/03/21 03:44:06;;;;;;;13.45;12.15;;;;;;;6.34;60.35;100067.03;5034576;27;104292;-66
2022/03/21 03:46:34;;;;;;;14.27;13.00;;;;;;;6.43;59.64;100065.03;5023921;27;104082;-66
2022/03/21 03:49:06;;;;;;;16.80;15.20;;;;;;;5.40;63.29;100068.31;5032672;27;103288;-66
2022/03/21 03:51:36;;;;;;;17.35;15.68;;;;;;;5.17;63.94;100082.94;5035043;27;102692;-66
2022/03/21 03:54:04;;;;;;;17.95;16.30;;;;;;;4.55;66.89;100086.44;5040490;27;104882;-67
2022/03/21 03:56:32;;;;;;;16.97;15.27;;;;;;;4.46;66.91;100084.06;5038462;27;104058;-66
2022/03/21 03:58:59;;;;;;;16.08;14.57;;;;;;;5.38;64.54;100081.47;5035486;27;103359;-66
2022/03/21 04:01:27;;;;;;;15.32;13.82;;;;;;;5.20;64.18;100085.50;5033618;27;102837;-67
2022/03/21 04:03:59;;;;;;;16.13;14.70;;;;;;;4.33;66.93;100085.25;5021779;27;104028;-66
2022/03/21 04:06:28;;;;;;;15.55;13.98;;;;;;;4.47;66.55;100085.78;5031824;27;103998;-66
2022/03/21 04:08:59;;;;;;;17.02;15.43;;;;;;;4.18;67.93;100081.31;5024488;27;103352;-66
2022/03/21 04:11:27;;;;;;;18.05;16.25;;;;;;;3.75;69.26;100081.47;5042321;27;102873;-66
2022/03/21 04:13:57;;;;;;;18.17;16.38;;;;;;;3.58;70.42;100091.44;5025745;27;103966;-66
2022/03/21 04:16:25;;;;;;;17.98;16.13;;;;;;;3.79;68.42;100083.09;5043626;27;103268;-66
2022/03/21 04:18:55;;;;;;;16.57;14.97;;;;;;;3.90;68.27;100099.38;5037197;27;103180;-66
2022/03/21 04:21:28;;;;;;;17.60;15.90;;;;;;;3.86;67.67;100095.13;5039583;27;102671;-66
2022/03/21 04:23:57;;;;;;;17.23;15.52;;;;;;;3.63;67.62;100089.56;5040127;27;103769;-66
2022/03/21 04:26:25;;;;;;;16.83;15.18;;;;;;;3.50;69.11;100095.97;5042205;27;103270;-66
2022/03/21 04:28:55;;;;;;;17.93;16.07;;;;;;;3.99;67.36;100098.31;5039507;27;103169;-66
2022/03/21 04:31:25;;;;;;;16.08;14.60;;;;;;;4.25;65.81;100098.53;5038339;27;102836;-66
2022/03/21 04:33:53;;;;;;;16.48;14.98;;;;;;;3.95;67.31;100105.38;5033860;27;103521;-66
2022/03/21 04:36:22;;;;;;;14.53;13.20;;;;;;;4.42;66.40;100103.34;5035540;27;102985;-67
2022/03/21 04:38:51;;;;;;;15.70;14.20;;;;;;;4.46;65.39;100108.47;5022471;27;103714;-67
2022/03/21 04:41:19;;;;;;;16.33;14.65;;;;;;;4.10;66.99;100110.25;5018089;27;103162;-67
2022/03/21 04:43:47;;;;;;;16.15;14.65;;;;;;;3.91;67.53;100118.56;5032848;27;102606;-67
2022/03/21 04:46:15;;;;;;;15.68;14.18;;;;;;;3.73;67.49;100119.00;5045681;27;103405;-67
2022/03/21 04:48:43;;;;;;;16.20;14.25;;;;;;;3.78;67.57;100123.22;5037790;27;103194;-66
2022/03/21 04:51:11;;;;;;;16.37;14.67;;;;;;;3.84;66.93;100120.47;5038481;27;103478;-66
2022/03/21 04:53:38;;;;;;;15.73;14.23;;;;;;;3.71;68.15;100116.38;5037710;27;102840;-66
2022/03/21 04:56:08;;;;;;;15.70;14.13;;;;;;;3.69;68.12;100127.78;5038564;27;104226;-66
2022/03/21 04:58:38;;;;;;;15.87;14.03;;;;;;;3.78;67.26;100123.22;5031720;27;104235;-66
2022/03/21 05:01:06;;;;;;;15.60;14.10;;;;;;;3.84;67.48;100122.22;5033541;27;102664;-66
2022/03/21 05:03:37;;;;;;;15.93;14.32;;;;;;;3.87;67.51;100122.16;5039969;27;102769;-66
2022/03/21 05:06:06;;;;;;;13.93;12.63;;;;;;;4.32;65.54;100117.59;5023634;27;104296;-65
2022/03/21 05:08:34;;;;;;;12.20;11.10;;;;;;;5.03;63.47;100126.16;5041408;27;103393;-65
2022/03/21 05:11:02;;;;;;;15.82;14.30;;;;;;;4.68;64.25;100124.50;5042665;27;102758;-65
2022/03/21 05:13:31;;;;;;;15.52;14.02;;;;;;;4.64;63.96;100123.72;5021958;27;104369;-65
2022/03/21 05:15:59;;;;;;;15.35;13.88;;;;;;;4.39;64.62;100127.84;5041554;27;103231;-65
2022/03/21 05:18:28;;;;;;;14.77;13.43;;;;;;;4.60;63.62;100129.06;5028836;27;103616;-66
2022/03/21 05:20:56;;;;;;;15.35;13.95;;;;;;;4.83;63.09;100124.06;5038593;27;103081;-67
2022/03/21 05:31:41;;;;;;;12.18;10.95;;;;;;;5.62;60.04;100137.56;5027582;27;102635;-66
2022/03/21 05:36:56;;;;;;;13.88;12.57;;;;;;;5.72;58.81;100134.63;5017473;27;103049;-66
2022/03/21 05:39:25;;;;;;;14.83;13.33;;;;;;;5.21;60.10;100144.88;5022684;27;103181;-66
2022/03/21 05:41:53;;;;;;;14.00;12.73;;;;;;;5.62;59.54;100140.19;5032989;27;102745;-66
2022/03/21 05:44:24;;;;;;;11.65;10.57;;;;;;;5.89;58.95;100147.28;5033418;27;102639;-66
2022/03/21 05:46:52;;;;;;;13.80;12.50;;;;;;;5.71;59.64;100153.03;5033980;27;103662;-66
2022/03/21 05:49:18;;;;;;;11.85;10.82;;;;;;;5.95;59.16;100152.31;5019254;27;104192;-66
2022/03/21 05:51:46;;;;;;;13.13;11.85;;;;;;;6.00;58.49;100155.66;5018170;27;102707;-66
2022/03/21 05:54:14;;;;;;;13.15;11.95;;;;;;;5.99;58.21;100158.31;5038048;27;103746;-66
2022/03/21 05:56:44;;;;;;;14.98;13.60;;;;;;;5.76;58.97;100146.72;5038966;27;104006;-66
2022/03/21 06:01:59;;;;;;;14.68;13.18;;;;;;;5.75;58.83;100165.97;5035823;27;103056;-66
2022/03/21 06:04:27;;;;;;;15.05;13.50;;;;;;;5.42;60.39;100171.38;5036159;27;103424;-66
2022/03/21 06:06:55;;;;;;;14.25;12.95;;;;;;;5.60;59.47;100170.84;5039228;27;104040;-65
2022/03/21 06:09:23;;;;;;;16.57;14.47;;;;;;;5.26;60.05;100177.03;5024549;27;103168;-67
2022/03/21 06:11:51;;;;;;;16.17;14.48;;;;;;;5.05;60.81;100177.59;5029667;27;103062;-66
2022/03/21 06:14:20;;;;;;;15.15;13.50;;;;;;;5.17;60.95;100177.28;5036593;27;104278;-67
2022/03/21 06:16:49;;;;;;;15.70;14.10;;;;;;;5.26;59.89;100184.91;5024989;27;103687;-66
2022/03/21 06:19:19;;;;;;;15.38;13.88;;;;;;;5.28;60.55;100184.84;5030934;27;103172;-67
2022/03/21 06:21:46;;;;;;;13.80;12.50;;;;;;;5.81;59.13;100185.97;5032587;27;102754;-67
2022/03/21 06:24:14;;;;;;;15.63;13.95;;;;;;;5.86;57.86;100184.09;5033710;27;102981;-67
2022/03/21 06:26:43;;;;;;;15.05;13.52;;;;;;;6.05;57.26;100180.00;5031076;27;103892;-66
2022/03/21 06:29:11;;;;;;;15.68;13.68;;;;;;;6.33;56.72;100191.34;5040483;27;103269;-67
2022/03/21 06:31:40;;;;;;;14.02;12.63;;;;;;;6.46;56.51;100183.09;5032377;27;102850;-67
2022/03/21 06:34:08;;;;;;;14.02;12.52;;;;;;;6.70;55.60;100190.16;5034597;27;102999;-66
2022/03/21 06:36:37;;;;;;;14.38;12.98;;;;;;;6.86;55.48;100184.34;5036552;27;104244;-68
2022/03/21 06:39:06;;;;;;;13.43;12.10;;;;;;;6.87;54.88;100187.81;5032051;27;103240;-66
2022/03/21 06:41:34;;;;;;;12.40;11.20;;;;;;;7.17;53.97;100186.75;5020834;27;102588;-66
2022/03/21 06:44:02;;;;;;;12.68;11.48;;;;;;;7.31;53.64;100189.75;5029859;27;102739;-66
2022/03/21 06:46:30;;;;;;;11.40;10.40;;;;;;;7.51;53.22;100189.03;5033424;27;103988;-66
2022/03/21 06:48:58;;;;;;;14.18;12.75;;;;;;;7.54;52.80;100181.91;5039109;27;103115;-67
2022/03/21 06:51:26;;;;;;;14.60;13.10;;;;;;;7.51;52.16;100174.13;5039271;27;102888;-66
2022/03/21 06:53:55;;;;;;;12.53;11.30;;;;;;;7.77;52.19;100188.09;5017740;27;103776;-66
2022/03/21 06:56:23;;;;;;;13.57;12.27;;;;;;;7.81;51.93;100179.16;5038468;27;103259;-66
2022/03/21 06:58:51;;;;;;;12.52;11.32;;;;;;;8.00;51.92;100182.81;5021284;27;104152;-67
2022/03/21 07:01:19;;;;;;;14.30;12.82;;;;;;;8.03;51.57;100182.66;5036343;27;102698;-67
2022/03/21 07:03:47;;;;;;;12.47;11.37;;;;;;;8.14;51.71;100183.09;5043130;27;104159;-67
2022/03/21 07:06:15;;;;;;;13.63;12.33;;;;;;;8.01;51.57;100190.63;5025432;27;104147;-67
2022/03/21 07:08:43;;;;;;;17.03;14.30;;;;;;;7.91;51.37;100191.06;5039876;27;103935;-67
2022/03/21 07:11:13;;;;;;;14.33;13.03;;;;;;;8.23;50.74;100203.81;5019113;27;102851;-67
2022/03/21 07:13:40;;;;;;;15.00;13.40;;;;;;;8.30;51.20;100200.06;5041373;27;103578;-67
2022/03/21 07:16:10;;;;;;;14.67;13.17;;;;;;;8.59;50.59;100201.53;5043927;27;103377;-65
2022/03/21 07:18:38;;;;;;;14.80;13.35;;;;;;;8.38;50.34;100200.63;5025260;27;104140;-65
2022/03/21 07:21:06;;;;;;;14.43;12.93;;;;;;;8.78;50.93;100197.22;5038532;27;102607;-65
2022/03/21 07:23:34;;;;;;;14.27;12.88;;;;;;;9.02;50.16;100195.34;5018730;27;102773;-65
2022/03/21 07:26:02;;;;;;;15.20;13.60;;;;;;;8.79;49.49;100193.66;5033564;27;103991;-65
2022/03/21 07:28:31;;;;;;;16.63;13.60;;;;;;;8.80;49.24;100199.78;5027635;27;103205;-65
2022/03/21 07:31:19;;;;;;;14.75;13.25;;;;;;;8.94;49.06;100205.34;5042257;27;103112;-65
2022/03/21 07:33:47;;;;;;;16.10;13.60;;;;;;;9.16;48.36;100199.09;5036140;27;104301;-66
2022/03/21 07:36:15;;;;;;;13.73;12.43;;;;;;;9.10;48.22;100206.41;5033027;27;103474;-66
2022/03/21 07:38:43;;;;;;;14.25;12.23;;;;;;;9.22;48.69;100208.53;5040033;27;103361;-66
2022/03/21 07:41:13;;;;;;;14.52;13.02;;;;;;;9.64;47.21;100213.69;5042274;27;102679;-66
2022/03/21 07:43:42;;;;;;;14.63;13.23;;;;;;;9.05;47.34;100216.28;5017008;27;103996;-66
2022/03/21 07:48:56;;;;;;;14.32;12.93;;;;;;;9.99;45.35;100217.38;5032965;27;103214;-66
2022/03/21 07:51:24;;;;;;;14.43;12.90;;;;;;;9.74;45.83;100222.94;5035291;27;102755;-66
2022/03/21 07:53:52;;;;;;;13.55;12.20;;;;;;;10.40;44.38;100216.31;5018895;27;104170;-66
2022/03/21 07:56:23;;;;;;;15.13;13.37;;;;;;;10.37;44.34;100216.47;5019857;27;104335;-66
2022/03/21 07:58:53;;;;;;;13.32;12.02;;;;;;;10.91;43.34;100224.38;5042593;27;103361;-66
2022/03/21 08:01:21;;;;;;;13.07;11.77;;;;;;;11.18;44.00;100218.59;5036252;27;102877;-66
2022/03/21 08:03:51;;;;;;;14.60;12.53;;;;;;;11.04;43.16;100217.53;5043827;27;104054;-67
2022/03/21 08:06:19;;;;;;;13.53;12.23;;;;;;;11.51;43.10;100222.16;5022291;27;103293;-67
2022/03/21 08:08:49;;;;;;;13.60;12.30;;;;;;;11.98;42.62;100215.25;5020574;27;102980;-66
2022/03/21 08:11:18;;;;;;;15.17;12.70;;;;;;;12.08;43.14;100219.09;5012598;27;102799;-66
2022/03/21 08:13:49;;;;;;;13.27;11.98;;;;;;;12.41;41.77;100216.38;5032789;27;102681;-66
2022/03/21 08:16:21;;;;;;;13.52;12.15;;;;;;;12.69;41.52;100215.66;5045490;27;103405;-66
2022/03/21 08:18:51;;;;;;;13.13;11.82;;;;;;;12.83;41.37;100217.53;5044357;27;103220;-66
2022/03/21 08:21:19;;;;;;;13.25;11.95;;;;;;;12.27;42.06;100213.63;5025561;27;102707;-66
2022/03/21 08:23:49;;;;;;;13.50;12.10;;;;;;;12.59;40.33;100215.34;5042388;27;103866;-66
2022/03/21 08:26:17;;;;;;;13.07;11.77;;;;;;;13.38;38.91;100209.88;5042454;27;103014;-66
2022/03/21 08:28:47;;;;;;;13.30;12.10;;;;;;;13.32;39.67;100206.63;5036229;27;103294;-66
2022/03/21 08:31:15;;;;;;;13.57;12.27;;;;;;;13.35;39.11;100211.75;5041717;27;102645;-66
2022/03/21 08:33:45;;;;;;;14.03;12.73;;;;;;;13.61;39.35;100212.84;5042916;27;103789;-66
2022/03/21 08:36:13;;;;;;;14.45;13.05;;;;;;;13.41;38.63;100215.00;5039932;27;103669;-66
2022/03/21 08:38:41;;;;;;;14.55;13.15;;;;;;;14.23;38.30;100208.91;5017731;27;104385;-66
2022/03/21 08:41:11;;;;;;;14.77;13.32;;;;;;;13.95;38.99;100207.13;5014178;27;102887;-66
2022/03/21 08:43:39;;;;;;;15.00;13.50;;;;;;;14.28;37.95;100203.31;5031484;27;103929;-66
2022/03/21 08:46:07;;;;;;;14.80;13.38;;;;;;;14.67;38.27;100210.56;5034849;27;103998;-66
2022/03/21 08:51:43;;;;;;;15.33;13.70;;;;;;;13.45;39.13;100206.75;5044419;27;102713;-66
2022/03/21 08:54:12;;;;;;;13.90;12.60;;;;;;;14.65;38.37;100194.72;5019768;27;104503;-67
2022/03/21 08:56:40;;;;;;;15.25;13.65;;;;;;;14.49;38.28;100194.84;5038871;27;103346;-66
2022/03/21 08:59:08;;;;;;;15.00;13.60;;;;;;;14.91;37.71;100192.97;5034246;27;103209;-67
2022/03/21 09:01:36;;;;;;;14.85;13.25;;;;;;;15.59;36.54;100194.50;5036115;27;102635;-66
2022/03/21 09:04:07;;;;;;;14.38;12.90;;;;;;;15.61;36.34;100189.91;5037940;27;102723;-66
2022/03/21 09:06:36;;;;;;;15.80;14.37;;;;;;;15.78;38.33;100190.53;5033472;27;103264;-67
2022/03/21 09:09:08;;;;;;;15.35;13.75;;;;;;;15.76;36.16;100187.97;5033859;27;103182;-66
2022/03/21 09:11:37;;;;;;;15.38;13.93;;;;;;;16.19;35.44;100191.13;5018943;27;103041;-66
2022/03/21 09:14:07;;;;;;;15.05;13.45;;;;;;;16.29;35.66;100192.16;5032335;27;103926;-66
2022/03/21 09:16:36;;;;;;;15.77;14.27;;;;;;;15.62;35.44;100196.09;5024147;27;104475;-66
2022/03/21 09:19:04;;;;;;;17.13;14.55;;;;;;;14.17;36.10;100195.19;5039107;27;103279;-67
2022/03/21 09:21:32;;;;;;;15.75;14.23;;;;;;;15.49;36.94;100193.44;5037808;27;102654;-66
2022/03/21 09:24:00;;;;;;;16.13;13.30;;;;;;;16.40;36.46;100186.03;5039698;27;104011;-66
2022/03/21 09:26:29;;;;;;;15.93;13.93;;;;;;;16.35;35.56;100191.72;5034303;27;103337;-66
2022/03/21 09:29:03;;;;;;;16.23;14.43;;;;;;;16.03;36.38;100185.16;5017902;27;104145;-67
2022/03/21 09:31:31;;;;;;;16.05;14.50;;;;;;;14.16;36.82;100188.13;5036579;27;102725;-67
2022/03/21 09:34:07;;;;;;;16.25;14.35;;;;;;;14.73;36.83;100186.22;5020967;27;103978;-67
2022/03/21 09:36:36;;;;;;;16.88;14.50;;;;;;;14.72;37.01;100192.47;5040306;27;103326;-67
2022/03/21 09:39:04;;;;;;;15.63;14.23;;;;;;;16.13;36.52;100186.22;5017575;27;104100;-67
2022/03/21 09:41:35;;;;;;;16.23;14.60;;;;;;;15.56;35.10;100178.72;5038383;27;102630;-67
2022/03/21 09:44:07;;;;;;;15.73;14.23;;;;;;;14.68;36.26;100186.50;5038630;27;102883;-67
2022/03/21 09:46:35;;;;;;;15.90;14.23;;;;;;;16.12;37.07;100180.03;5043544;27;103258;-67
2022/03/21 09:49:04;;;;;;;15.20;13.82;;;;;;;16.41;35.90;100177.06;5036575;27;103176;-68
2022/03/21 09:51:32;;;;;;;15.63;14.27;;;;;;;16.63;36.54;100170.09;5030276;27;102960;-67
2022/03/21 09:54:02;;;;;;;16.73;15.00;;;;;;;16.54;35.40;100169.91;5027297;27;103874;-70
2022/03/21 09:56:30;;;;;;;16.60;15.10;;;;;;;15.24;35.52;100174.72;5016388;27;103282;-67
2022/03/21 09:59:00;;;;;;;16.55;14.93;;;;;;;15.68;35.29;100166.34;5036213;27;103344;-67
2022/03/21 10:01:29;;;;;;;16.13;14.68;;;;;;;16.67;34.29;100166.19;5020681;27;102697;-68
2022/03/21 10:03:58;;;;;;;16.52;14.93;;;;;;;16.45;35.02;100166.06;5040286;27;103849;-68
2022/03/21 10:06:28;;;;;;;15.45;14.13;;;;;;;16.66;34.46;100169.84;5018323;27;104222;-68
2022/03/21 10:09:10;;;;;;;17.20;15.60;;;;;;;15.98;35.46;100163.31;5042891;27;103129;-68
2022/03/21 10:11:39;;;;;;;17.33;15.73;;;;;;;15.94;35.00;100161.84;5044437;27;102675;-68
2022/03/21 10:14:29;;;;;;;16.73;15.05;;;;;;;17.29;34.97;100157.94;5013559;27;104062;-68
2022/03/21 10:17:00;;;;;;;16.08;14.57;;;;;;;17.78;33.98;100157.66;5023721;27;103822;-68
2022/03/21 10:19:42;;;;;;;17.27;15.67;;;;;;;18.13;33.96;100149.50;5037282;27;104554;-68
2022/03/21 10:22:13;;;;;;;17.60;16.13;;;;;;;17.58;33.72;100159.22;5038106;27;102608;-68
2022/03/21 10:24:43;;;;;;;17.95;16.35;;;;;;;17.60;32.95;100154.59;5031491;27;102650;-68
2022/03/21 10:27:31;;;;;;;17.27;15.75;;;;;;;17.55;33.01;100156.78;5034625;27;103719;-68
2022/03/21 10:30:02;;;;;;;16.23;14.73;;;;;;;17.86;32.29;100145.38;5031020;27;103266;-69
2022/03/21 10:32:32;;;;;;;18.30;16.60;;;;;;;17.48;33.99;100144.88;5043995;27;102939;-69
2022/03/21 10:35:02;;;;;;;18.92;17.23;;;;;;;18.02;33.32;100152.19;5038662;27;102679;-68
2022/03/21 10:37:42;;;;;;;17.88;16.27;;;;;;;18.20;31.83;100137.31;5017777;27;103265;-68
2022/03/21 10:40:26;;;;;;;17.75;16.02;;;;;;;16.13;34.15;100155.09;5038019;27;103022;-68
2022/03/21 10:42:57;;;;;;;18.15;16.58;;;;;;;16.69;33.57;100145.63;5038295;27;102984;-68
2022/03/21 10:45:41;;;;;;;17.27;15.77;;;;;;;17.71;33.12;100151.09;5045590;27;103947;-68
2022/03/21 10:48:11;;;;;;;16.40;15.00;;;;;;;18.13;33.45;100142.34;5017080;27;104383;-68
2022/03/21 10:50:43;;;;;;;18.57;16.80;;;;;;;18.33;33.18;100136.19;5042235;27;103232;-68
2022/03/21 10:53:13;;;;;;;15.98;14.55;;;;;;;18.77;33.07;100139.75;5040633;27;102650;-68
2022/03/21 10:55:43;;;;;;;17.05;15.55;;;;;;;18.30;32.86;100136.44;5043496;27;103656;-67
2022/03/21 10:58:12;;;;;;;16.38;14.98;;;;;;;18.76;32.22;100133.53;5042834;27;103247;-70
2022/03/21 11:00:42;;;;;;;16.50;15.00;;;;;;;19.19;31.92;100127.22;5040080;27;103194;-69
2022/03/21 11:03:15;;;;;;;17.13;15.52;;;;;;;17.43;32.73;100144.38;5016985;27;102915;-68
2022/03/21 11:05:46;;;;;;;18.25;16.63;;;;;;;16.62;33.57;100138.16;5042522;27;103687;-69
2022/03/21 11:08:16;;;;;;;18.13;16.48;;;;;;;16.40;34.23;100135.34;5033601;27;103425;-68
2022/03/21 11:10:45;;;;;;;19.33;17.52;;;;;;;15.94;34.26;100137.84;5022459;27;104231;-68
2022/03/21 11:13:13;;;;;;;17.77;16.17;;;;;;;17.05;34.16;100133.09;5015376;27;102974;-67
2022/03/21 11:15:43;;;;;;;17.88;16.27;;;;;;;17.21;34.71;100130.94;5046956;27;104254;-67
2022/03/21 11:18:11;;;;;;;18.25;16.60;;;;;;;17.08;33.42;100132.88;5025060;27;104015;-69
2022/03/21 11:20:39;;;;;;;17.77;16.17;;;;;;;17.66;34.11;100131.88;5035078;27;103183;-66
2022/03/21 11:23:07;;;;;;;18.37;16.73;;;;;;;16.96;34.17;100123.13;5042209;27;102870;-68
2022/03/21 11:25:39;;;;;;;17.13;15.63;;;;;;;16.78;35.57;100123.56;5039675;27;103544;-68
2022/03/21 11:28:55;;;;;;;18.08;16.33;;;;;;;15.90;36.26;100125.69;5037855;27;104194;-68
2022/03/21 11:31:38;;;;;;;18.48;16.60;;;;;;;15.33;36.41;100130.63;5040388;27;102663;-69
2022/03/21 11:34:17;;;;;;;17.63;15.83;;;;;;;15.46;36.51;100127.06;5023438;27;103006;-69
2022/03/21 11:36:52;;;;;;;17.55;15.95;;;;;;;17.23;35.67;100127.22;5035453;27;102731;-68
2022/03/21 11:39:21;;;;;;;18.25;16.35;;;;;;;15.60;35.79;100124.28;5033107;27;103700;-69
2022/03/21 11:42:00;;;;;;;16.83;15.20;;;;;;;16.94;35.06;100117.06;5036034;27;103182;-69